sensor_id;sensor_type;location;lat;lon;timestamp;P1;durP1;ratioP1;P2;durP2;ratioP2
79076;SDS011;68477;42.698;23.342;2023-09-08T00:00:55;13.82;;;9.50;;
79076;SDS011;68477;42.698;23.342;2023-09-08T00:03:21;14.80;;;9.63;;
79076;SDS011;68477;42.698;23.342;2023-09-08T00:05:46;17.77;;;10.07;;
79076;SDS011;68477;42.698;23.342;2023-09-08T00:08:12;17.65;;;10.10;;
79076;SDS011;68477;42.698;23.342;2023-09-08T00:10:37;17.48;;;10.10;;
79076;SDS011;68477;42.698;23.342;2023-09-08T00:13:03;11.65;;;8.75;;
79076;SDS011;68477;42.698;23.342;2023-09-08T00:15:28;14.13;;;8.88;;
79076;SDS011;68477;42.698;23.342;2023-09-08T00:17:53;12.23;;;8.73;;
79076;SDS011;68477;42.698;23.342;2023-09-08T00:20:19;13.43;;;8.48;;
79076;SDS011;68477;42.698;23.342;2023-09-08T00:22:44;10.52;;;7.80;;
79076;SDS011;68477;42.698;23.342;2023-09-08T00:25:10;14.43;;;8.57;;
79076;SDS011;68477;42.698;23.342;2023-09-08T00:27:35;15.57;;;8.60;;
79076;SDS011;68477;42.698;23.342;2023-09-08T00:30:01;12.35;;;8.02;;
79076;SDS011;68477;42.698;23.342;2023-09-08T00:32:27;10.18;;;7.35;;
79076;SDS011;68477;42.698;23.342;2023-09-08T00:34:52;10.45;;;8.38;;
79076;SDS011;68477;42.698;23.342;2023-09-08T00:37:18;14.75;;;7.85;;
79076;SDS011;68477;42.698;23.342;2023-09-08T00:39:43;9.90;;;6.75;;
79076;SDS011;68477;42.698;23.342;2023-09-08T00:42:10;14.30;;;7.05;;
79076;SDS011;68477;42.698;23.342;2023-09-08T00:44:35;11.00;;;6.95;;
79076;SDS011;68477;42.698;23.342;2023-09-08T00:47:01;10.02;;;6.80;;
79076;SDS011;68477;42.698;23.342;2023-09-08T00:49:26;8.63;;;6.57;;
79076;SDS011;68477;42.698;23.342;2023-09-08T00:51:53;9.35;;;6.80;;
79076;SDS011;68477;42.698;23.342;2023-09-08T00:54:19;9.90;;;6.65;;
79076;SDS011;68477;42.698;23.342;2023-09-08T00:56:45;12.55;;;6.90;;
79076;SDS011;68477;42.698;23.342;2023-09-08T01:01:38;9.33;;;6.60;;
79076;SDS011;68477;42.698;23.342;2023-09-08T01:04:04;8.73;;;5.90;;
79076;SDS011;68477;42.698;23.342;2023-09-08T01:06:30;8.63;;;6.13;;
79076;SDS011;68477;42.698;23.342;2023-09-08T01:08:57;10.35;;;7.10;;
79076;SDS011;68477;42.698;23.342;2023-09-08T01:11:23;9.88;;;6.18;;
79076;SDS011;68477;42.698;23.342;2023-09-08T01:13:49;9.52;;;5.95;;
79076;SDS011;68477;42.698;23.342;2023-09-08T01:16:14;10.55;;;5.97;;
79076;SDS011;68477;42.698;23.342;2023-09-08T01:18:40;9.73;;;6.18;;
79076;SDS011;68477;42.698;23.342;2023-09-08T01:21:12;13.40;;;5.85;;
79076;SDS011;68477;42.698;23.342;2023-09-08T01:23:44;10.40;;;6.20;;
79076;SDS011;68477;42.698;23.342;2023-09-08T01:26:21;7.00;;;5.18;;
79076;SDS011;68477;42.698;23.342;2023-09-08T01:28:52;10.40;;;6.22;;
79076;SDS011;68477;42.698;23.342;2023-09-08T01:31:18;9.65;;;5.65;;
79076;SDS011;68477;42.698;23.342;2023-09-08T01:33:45;11.13;;;6.05;;
79076;SDS011;68477;42.698;23.342;2023-09-08T01:36:10;8.73;;;5.70;;
79076;SDS011;68477;42.698;23.342;2023-09-08T01:38:36;7.95;;;5.75;;
79076;SDS011;68477;42.698;23.342;2023-09-08T01:41:02;7.53;;;5.25;;
79076;SDS011;68477;42.698;23.342;2023-09-08T01:43:27;11.70;;;5.47;;
79076;SDS011;68477;42.698;23.342;2023-09-08T01:45:53;9.15;;;5.50;;
79076;SDS011;68477;42.698;23.342;2023-09-08T01:48:18;7.82;;;5.28;;
79076;SDS011;68477;42.698;23.342;2023-09-08T01:50:46;10.45;;;5.82;;
79076;SDS011;68477;42.698;23.342;2023-09-08T01:53:12;8.75;;;5.90;;
79076;SDS011;68477;42.698;23.342;2023-09-08T01:55:37;10.77;;;5.85;;
79076;SDS011;68477;42.698;23.342;2023-09-08T01:58:02;10.10;;;5.65;;
79076;SDS011;68477;42.698;23.342;2023-09-08T02:00:28;8.13;;;5.53;;
79076;SDS011;68477;42.698;23.342;2023-09-08T02:02:55;8.32;;;5.72;;
79076;SDS011;68477;42.698;23.342;2023-09-08T02:05:20;9.18;;;5.88;;
79076;SDS011;68477;42.698;23.342;2023-09-08T02:07:46;10.27;;;6.35;;
79076;SDS011;68477;42.698;23.342;2023-09-08T02:10:11;9.38;;;6.00;;
79076;SDS011;68477;42.698;23.342;2023-09-08T02:12:37;7.70;;;5.90;;
79076;SDS011;68477;42.698;23.342;2023-09-08T02:15:02;13.23;;;6.18;;
79076;SDS011;68477;42.698;23.342;2023-09-08T02:17:29;12.65;;;5.80;;
79076;SDS011;68477;42.698;23.342;2023-09-08T02:19:55;7.60;;;5.68;;
79076;SDS011;68477;42.698;23.342;2023-09-08T02:22:20;10.38;;;6.13;;
79076;SDS011;68477;42.698;23.342;2023-09-08T02:24:46;6.75;;;5.47;;
79076;SDS011;68477;42.698;23.342;2023-09-08T02:27:11;9.80;;;5.80;;
79076;SDS011;68477;42.698;23.342;2023-09-08T02:29:37;11.32;;;5.60;;
79076;SDS011;68477;42.698;23.342;2023-09-08T02:32:03;17.48;;;6.22;;
79076;SDS011;68477;42.698;23.342;2023-09-08T02:34:28;8.18;;;5.78;;
79076;SDS011;68477;42.698;23.342;2023-09-08T02:36:54;10.15;;;5.90;;
79076;SDS011;68477;42.698;23.342;2023-09-08T02:39:20;8.30;;;5.80;;
79076;SDS011;68477;42.698;23.342;2023-09-08T02:41:48;9.18;;;6.72;;
79076;SDS011;68477;42.698;23.342;2023-09-08T02:44:13;10.80;;;6.70;;
79076;SDS011;68477;42.698;23.342;2023-09-08T02:46:39;8.35;;;5.93;;
79076;SDS011;68477;42.698;23.342;2023-09-08T02:49:05;10.80;;;6.47;;
79076;SDS011;68477;42.698;23.342;2023-09-08T02:51:31;10.30;;;6.97;;
79076;SDS011;68477;42.698;23.342;2023-09-08T02:53:56;10.73;;;6.60;;
79076;SDS011;68477;42.698;23.342;2023-09-08T02:56:22;9.70;;;6.28;;
79076;SDS011;68477;42.698;23.342;2023-09-08T02:58:47;13.32;;;6.40;;
79076;SDS011;68477;42.698;23.342;2023-09-08T03:01:13;10.30;;;6.65;;
79076;SDS011;68477;42.698;23.342;2023-09-08T03:03:40;13.75;;;7.22;;
79076;SDS011;68477;42.698;23.342;2023-09-08T03:06:06;9.35;;;6.25;;
79076;SDS011;68477;42.698;23.342;2023-09-08T03:08:32;9.38;;;7.00;;
79076;SDS011;68477;42.698;23.342;2023-09-08T03:10:58;9.05;;;6.63;;
79076;SDS011;68477;42.698;23.342;2023-09-08T03:13:25;13.70;;;6.97;;
79076;SDS011;68477;42.698;23.342;2023-09-08T03:15:51;9.93;;;6.85;;
79076;SDS011;68477;42.698;23.342;2023-09-08T03:18:17;9.73;;;6.20;;
79076;SDS011;68477;42.698;23.342;2023-09-08T03:20:42;13.05;;;6.80;;
79076;SDS011;68477;42.698;23.342;2023-09-08T03:23:08;9.27;;;6.45;;
79076;SDS011;68477;42.698;23.342;2023-09-08T03:25:34;11.05;;;6.38;;
79076;SDS011;68477;42.698;23.342;2023-09-08T03:27:59;10.27;;;6.85;;
79076;SDS011;68477;42.698;23.342;2023-09-08T03:30:25;10.18;;;6.70;;
79076;SDS011;68477;42.698;23.342;2023-09-08T03:32:50;12.25;;;6.80;;
79076;SDS011;68477;42.698;23.342;2023-09-08T03:35:15;13.85;;;6.78;;
79076;SDS011;68477;42.698;23.342;2023-09-08T03:37:41;11.20;;;7.18;;
79076;SDS011;68477;42.698;23.342;2023-09-08T03:40:07;12.48;;;7.63;;
79076;SDS011;68477;42.698;23.342;2023-09-08T03:42:32;12.05;;;7.18;;
79076;SDS011;68477;42.698;23.342;2023-09-08T03:44:59;14.98;;;7.53;;
79076;SDS011;68477;42.698;23.342;2023-09-08T03:47:25;15.70;;;7.13;;
79076;SDS011;68477;42.698;23.342;2023-09-08T03:49:50;11.23;;;7.35;;
79076;SDS011;68477;42.698;23.342;2023-09-08T03:52:16;10.75;;;7.80;;
79076;SDS011;68477;42.698;23.342;2023-09-08T03:54:41;11.43;;;7.00;;
79076;SDS011;68477;42.698;23.342;2023-09-08T03:57:07;11.95;;;7.78;;
79076;SDS011;68477;42.698;23.342;2023-09-08T03:59:32;9.35;;;7.47;;
79076;SDS011;68477;42.698;23.342;2023-09-08T04:01:58;16.23;;;8.02;;
79076;SDS011;68477;42.698;23.342;2023-09-08T04:04:23;10.27;;;7.18;;
79076;SDS011;68477;42.698;23.342;2023-09-08T04:06:49;13.48;;;7.57;;
79076;SDS011;68477;42.698;23.342;2023-09-08T04:09:15;11.85;;;7.72;;
79076;SDS011;68477;42.698;23.342;2023-09-08T04:11:40;12.43;;;7.45;;
79076;SDS011;68477;42.698;23.342;2023-09-08T04:14:06;10.35;;;7.20;;
79076;SDS011;68477;42.698;23.342;2023-09-08T04:16:31;11.73;;;7.65;;
79076;SDS011;68477;42.698;23.342;2023-09-08T04:18:56;12.27;;;7.60;;
79076;SDS011;68477;42.698;23.342;2023-09-08T04:21:22;14.25;;;7.97;;
79076;SDS011;68477;42.698;23.342;2023-09-08T04:23:47;19.35;;;7.60;;
79076;SDS011;68477;42.698;23.342;2023-09-08T04:26:13;12.23;;;7.53;;
79076;SDS011;68477;42.698;23.342;2023-09-08T04:28:39;13.38;;;8.10;;
79076;SDS011;68477;42.698;23.342;2023-09-08T04:31:04;14.93;;;7.93;;
79076;SDS011;68477;42.698;23.342;2023-09-08T04:33:31;14.48;;;8.73;;
79076;SDS011;68477;42.698;23.342;2023-09-08T04:35:56;15.35;;;8.05;;
79076;SDS011;68477;42.698;23.342;2023-09-08T04:38:22;14.13;;;7.65;;
79076;SDS011;68477;42.698;23.342;2023-09-08T04:40:47;13.88;;;8.00;;
79076;SDS011;68477;42.698;23.342;2023-09-08T04:43:13;11.50;;;7.80;;
79076;SDS011;68477;42.698;23.342;2023-09-08T04:45:38;16.95;;;8.32;;
79076;SDS011;68477;42.698;23.342;2023-09-08T04:48:04;18.00;;;7.85;;
79076;SDS011;68477;42.698;23.342;2023-09-08T04:50:30;14.85;;;8.70;;
79076;SDS011;68477;42.698;23.342;2023-09-08T04:52:55;15.43;;;7.63;;
79076;SDS011;68477;42.698;23.342;2023-09-08T04:55:20;15.15;;;7.57;;
79076;SDS011;68477;42.698;23.342;2023-09-08T04:57:46;14.45;;;8.27;;
79076;SDS011;68477;42.698;23.342;2023-09-08T05:00:14;13.73;;;7.80;;
79076;SDS011;68477;42.698;23.342;2023-09-08T05:02:40;12.32;;;7.70;;
79076;SDS011;68477;42.698;23.342;2023-09-08T05:05:06;17.85;;;8.02;;
79076;SDS011;68477;42.698;23.342;2023-09-08T05:07:31;13.32;;;7.55;;
79076;SDS011;68477;42.698;23.342;2023-09-08T05:09:57;11.45;;;7.00;;
79076;SDS011;68477;42.698;23.342;2023-09-08T05:12:22;15.15;;;7.90;;
79076;SDS011;68477;42.698;23.342;2023-09-08T05:14:47;12.98;;;8.27;;
79076;SDS011;68477;42.698;23.342;2023-09-08T05:17:13;19.63;;;8.00;;
79076;SDS011;68477;42.698;23.342;2023-09-08T05:19:38;11.27;;;8.10;;
79076;SDS011;68477;42.698;23.342;2023-09-08T05:22:04;13.48;;;7.72;;
79076;SDS011;68477;42.698;23.342;2023-09-08T05:24:31;14.07;;;6.97;;
79076;SDS011;68477;42.698;23.342;2023-09-08T05:26:56;9.82;;;6.40;;
79076;SDS011;68477;42.698;23.342;2023-09-08T05:29:22;10.93;;;5.80;;
79076;SDS011;68477;42.698;23.342;2023-09-08T05:31:47;10.45;;;6.05;;
79076;SDS011;68477;42.698;23.342;2023-09-08T05:34:13;9.20;;;6.70;;
79076;SDS011;68477;42.698;23.342;2023-09-08T05:36:38;16.25;;;6.72;;
79076;SDS011;68477;42.698;23.342;2023-09-08T05:39:05;14.95;;;5.70;;
79076;SDS011;68477;42.698;23.342;2023-09-08T05:41:30;10.07;;;6.85;;
79076;SDS011;68477;42.698;23.342;2023-09-08T05:43:57;7.53;;;5.32;;
79076;SDS011;68477;42.698;23.342;2023-09-08T05:46:22;15.13;;;6.22;;
79076;SDS011;68477;42.698;23.342;2023-09-08T05:48:48;9.73;;;5.88;;
79076;SDS011;68477;42.698;23.342;2023-09-08T05:51:14;8.90;;;5.55;;
79076;SDS011;68477;42.698;23.342;2023-09-08T05:53:40;14.93;;;6.13;;
79076;SDS011;68477;42.698;23.342;2023-09-08T05:56:06;8.90;;;5.68;;
79076;SDS011;68477;42.698;23.342;2023-09-08T05:58:32;11.52;;;5.63;;
79076;SDS011;68477;42.698;23.342;2023-09-08T06:00:58;9.15;;;6.22;;
79076;SDS011;68477;42.698;23.342;2023-09-08T06:03:25;10.77;;;5.30;;
79076;SDS011;68477;42.698;23.342;2023-09-08T06:05:51;12.05;;;4.85;;
79076;SDS011;68477;42.698;23.342;2023-09-08T06:08:16;7.82;;;4.95;;
79076;SDS011;68477;42.698;23.342;2023-09-08T06:10:42;9.65;;;5.40;;
79076;SDS011;68477;42.698;23.342;2023-09-08T06:13:07;14.35;;;5.78;;
79076;SDS011;68477;42.698;23.342;2023-09-08T06:15:33;7.65;;;4.75;;
79076;SDS011;68477;42.698;23.342;2023-09-08T06:17:58;7.85;;;5.03;;
79076;SDS011;68477;42.698;23.342;2023-09-08T06:20:24;12.35;;;5.43;;
79076;SDS011;68477;42.698;23.342;2023-09-08T06:22:50;7.55;;;5.03;;
79076;SDS011;68477;42.698;23.342;2023-09-08T06:25:15;6.68;;;4.47;;
79076;SDS011;68477;42.698;23.342;2023-09-08T06:27:41;10.13;;;4.38;;
79076;SDS011;68477;42.698;23.342;2023-09-08T06:30:06;6.30;;;4.30;;
79076;SDS011;68477;42.698;23.342;2023-09-08T06:32:32;15.23;;;7.15;;
79076;SDS011;68477;42.698;23.342;2023-09-08T06:34:58;7.72;;;5.13;;
79076;SDS011;68477;42.698;23.342;2023-09-08T06:37:23;9.07;;;4.15;;
79076;SDS011;68477;42.698;23.342;2023-09-08T06:39:49;7.85;;;4.20;;
79076;SDS011;68477;42.698;23.342;2023-09-08T06:42:14;10.20;;;4.05;;
79076;SDS011;68477;42.698;23.342;2023-09-08T06:44:40;6.65;;;3.90;;
79076;SDS011;68477;42.698;23.342;2023-09-08T06:47:05;6.95;;;3.80;;
79076;SDS011;68477;42.698;23.342;2023-09-08T06:51:59;8.10;;;4.13;;
79076;SDS011;68477;42.698;23.342;2023-09-08T06:54:24;7.55;;;3.95;;
79076;SDS011;68477;42.698;23.342;2023-09-08T06:56:49;5.75;;;3.70;;
79076;SDS011;68477;42.698;23.342;2023-09-08T06:59:15;9.02;;;4.10;;
79076;SDS011;68477;42.698;23.342;2023-09-08T07:01:42;8.05;;;4.22;;
79076;SDS011;68477;42.698;23.342;2023-09-08T07:04:07;10.40;;;5.38;;
79076;SDS011;68477;42.698;23.342;2023-09-08T07:06:33;5.68;;;3.53;;
79076;SDS011;68477;42.698;23.342;2023-09-08T07:08:59;7.07;;;3.60;;
79076;SDS011;68477;42.698;23.342;2023-09-08T07:11:25;8.95;;;3.65;;
79076;SDS011;68477;42.698;23.342;2023-09-08T07:13:51;6.20;;;3.38;;
79076;SDS011;68477;42.698;23.342;2023-09-08T07:16:17;7.05;;;3.20;;
79076;SDS011;68477;42.698;23.342;2023-09-08T07:18:42;5.93;;;3.17;;
79076;SDS011;68477;42.698;23.342;2023-09-08T07:21:08;5.55;;;3.35;;
79076;SDS011;68477;42.698;23.342;2023-09-08T07:23:34;6.20;;;3.85;;
79076;SDS011;68477;42.698;23.342;2023-09-08T07:26:01;9.00;;;3.53;;
79076;SDS011;68477;42.698;23.342;2023-09-08T07:28:27;5.25;;;3.50;;
79076;SDS011;68477;42.698;23.342;2023-09-08T07:30:52;10.85;;;3.38;;
79076;SDS011;68477;42.698;23.342;2023-09-08T07:33:18;6.82;;;3.60;;
79076;SDS011;68477;42.698;23.342;2023-09-08T07:35:44;9.52;;;3.72;;
79076;SDS011;68477;42.698;23.342;2023-09-08T07:38:10;8.90;;;3.40;;
79076;SDS011;68477;42.698;23.342;2023-09-08T07:40:35;5.47;;;3.60;;
79076;SDS011;68477;42.698;23.342;2023-09-08T07:43:01;10.02;;;3.53;;
79076;SDS011;68477;42.698;23.342;2023-09-08T07:45:27;5.03;;;3.20;;
79076;SDS011;68477;42.698;23.342;2023-09-08T07:47:53;9.73;;;3.70;;
79076;SDS011;68477;42.698;23.342;2023-09-08T07:50:22;7.28;;;3.63;;
79076;SDS011;68477;42.698;23.342;2023-09-08T07:52:49;6.63;;;3.42;;
79076;SDS011;68477;42.698;23.342;2023-09-08T07:55:16;6.05;;;3.05;;
79076;SDS011;68477;42.698;23.342;2023-09-08T07:57:43;6.55;;;3.55;;
79076;SDS011;68477;42.698;23.342;2023-09-08T08:00:11;5.78;;;3.55;;
79076;SDS011;68477;42.698;23.342;2023-09-08T08:02:41;7.13;;;3.47;;
79076;SDS011;68477;42.698;23.342;2023-09-08T08:05:11;5.85;;;3.55;;
79076;SDS011;68477;42.698;23.342;2023-09-08T08:07:38;4.90;;;3.55;;
79076;SDS011;68477;42.698;23.342;2023-09-08T08:10:04;13.95;;;3.53;;
79076;SDS011;68477;42.698;23.342;2023-09-08T08:12:30;5.97;;;3.50;;
79076;SDS011;68477;42.698;23.342;2023-09-08T08:14:56;5.00;;;3.58;;
79076;SDS011;68477;42.698;23.342;2023-09-08T08:17:21;7.63;;;3.80;;
79076;SDS011;68477;42.698;23.342;2023-09-08T08:19:48;9.50;;;5.35;;
79076;SDS011;68477;42.698;23.342;2023-09-08T08:22:14;5.65;;;3.83;;
79076;SDS011;68477;42.698;23.342;2023-09-08T08:24:39;7.30;;;3.78;;
79076;SDS011;68477;42.698;23.342;2023-09-08T08:27:06;7.38;;;4.13;;
79076;SDS011;68477;42.698;23.342;2023-09-08T08:29:31;11.95;;;3.75;;
79076;SDS011;68477;42.698;23.342;2023-09-08T08:31:58;9.18;;;3.45;;
79076;SDS011;68477;42.698;23.342;2023-09-08T08:34:23;6.47;;;3.58;;
79076;SDS011;68477;42.698;23.342;2023-09-08T08:36:49;5.22;;;3.50;;
79076;SDS011;68477;42.698;23.342;2023-09-08T08:39:14;6.20;;;3.90;;
79076;SDS011;68477;42.698;23.342;2023-09-08T08:41:40;6.32;;;4.13;;
79076;SDS011;68477;42.698;23.342;2023-09-08T08:44:06;6.75;;;3.60;;
79076;SDS011;68477;42.698;23.342;2023-09-08T08:46:33;6.32;;;4.18;;
79076;SDS011;68477;42.698;23.342;2023-09-08T08:49:00;4.82;;;3.63;;
79076;SDS011;68477;42.698;23.342;2023-09-08T08:51:27;6.28;;;3.55;;
79076;SDS011;68477;42.698;23.342;2023-09-08T08:53:54;4.32;;;3.42;;
79076;SDS011;68477;42.698;23.342;2023-09-08T08:56:20;6.70;;;3.92;;
79076;SDS011;68477;42.698;23.342;2023-09-08T08:58:46;6.50;;;4.00;;
79076;SDS011;68477;42.698;23.342;2023-09-08T09:01:12;7.22;;;3.40;;
79076;SDS011;68477;42.698;23.342;2023-09-08T09:03:38;7.82;;;4.00;;
79076;SDS011;68477;42.698;23.342;2023-09-08T09:06:05;4.63;;;3.42;;
79076;SDS011;68477;42.698;23.342;2023-09-08T09:08:30;8.48;;;4.30;;
79076;SDS011;68477;42.698;23.342;2023-09-08T09:10:57;6.50;;;3.40;;
79076;SDS011;68477;42.698;23.342;2023-09-08T09:13:22;5.43;;;3.50;;
79076;SDS011;68477;42.698;23.342;2023-09-08T09:15:48;8.10;;;3.45;;
79076;SDS011;68477;42.698;23.342;2023-09-08T09:18:15;4.53;;;3.22;;
79076;SDS011;68477;42.698;23.342;2023-09-08T09:20:40;6.95;;;3.75;;
79076;SDS011;68477;42.698;23.342;2023-09-08T09:23:26;5.60;;;3.85;;
79076;SDS011;68477;42.698;23.342;2023-09-08T09:25:58;7.20;;;3.28;;
79076;SDS011;68477;42.698;23.342;2023-09-08T09:28:25;7.88;;;3.80;;
79076;SDS011;68477;42.698;23.342;2023-09-08T09:30:53;6.35;;;3.80;;
79076;SDS011;68477;42.698;23.342;2023-09-08T09:35:48;8.23;;;3.53;;
79076;SDS011;68477;42.698;23.342;2023-09-08T09:38:18;4.65;;;3.40;;
79076;SDS011;68477;42.698;23.342;2023-09-08T09:40:45;4.93;;;3.53;;
79076;SDS011;68477;42.698;23.342;2023-09-08T09:43:13;8.43;;;3.53;;
79076;SDS011;68477;42.698;23.342;2023-09-08T09:45:41;6.88;;;3.17;;
79076;SDS011;68477;42.698;23.342;2023-09-08T09:48:08;7.95;;;3.47;;
79076;SDS011;68477;42.698;23.342;2023-09-08T09:50:40;6.60;;;3.95;;
79076;SDS011;68477;42.698;23.342;2023-09-08T09:53:12;6.72;;;4.70;;
79076;SDS011;68477;42.698;23.342;2023-09-08T09:55:42;9.27;;;4.88;;
79076;SDS011;68477;42.698;23.342;2023-09-08T09:58:09;9.93;;;4.85;;
79076;SDS011;68477;42.698;23.342;2023-09-08T10:00:38;6.25;;;4.32;;
79076;SDS011;68477;42.698;23.342;2023-09-08T10:03:06;6.63;;;3.88;;
79076;SDS011;68477;42.698;23.342;2023-09-08T10:05:32;7.20;;;4.13;;
79076;SDS011;68477;42.698;23.342;2023-09-08T10:07:58;6.47;;;3.88;;
79076;SDS011;68477;42.698;23.342;2023-09-08T10:10:24;7.47;;;4.35;;
79076;SDS011;68477;42.698;23.342;2023-09-08T10:12:53;7.22;;;3.65;;
79076;SDS011;68477;42.698;23.342;2023-09-08T10:15:21;10.10;;;4.13;;
79076;SDS011;68477;42.698;23.342;2023-09-08T10:17:52;7.28;;;3.97;;
79076;SDS011;68477;42.698;23.342;2023-09-08T10:20:22;8.38;;;3.88;;
79076;SDS011;68477;42.698;23.342;2023-09-08T10:22:50;8.88;;;4.25;;
79076;SDS011;68477;42.698;23.342;2023-09-08T10:25:19;7.28;;;4.00;;
79076;SDS011;68477;42.698;23.342;2023-09-08T10:27:46;8.40;;;3.92;;
79076;SDS011;68477;42.698;23.342;2023-09-08T10:30:13;5.53;;;3.42;;
79076;SDS011;68477;42.698;23.342;2023-09-08T10:35:08;6.93;;;3.58;;
79076;SDS011;68477;42.698;23.342;2023-09-08T10:37:34;7.35;;;4.40;;
79076;SDS011;68477;42.698;23.342;2023-09-08T10:42:47;6.80;;;3.60;;
79076;SDS011;68477;42.698;23.342;2023-09-08T10:45:17;4.85;;;3.47;;
79076;SDS011;68477;42.698;23.342;2023-09-08T10:50:18;6.82;;;3.47;;
79076;SDS011;68477;42.698;23.342;2023-09-08T10:52:44;8.10;;;4.13;;
79076;SDS011;68477;42.698;23.342;2023-09-08T10:55:11;6.07;;;3.65;;
79076;SDS011;68477;42.698;23.342;2023-09-08T10:57:44;8.02;;;3.50;;
79076;SDS011;68477;42.698;23.342;2023-09-08T11:00:11;7.43;;;3.50;;
79076;SDS011;68477;42.698;23.342;2023-09-08T11:02:47;6.97;;;3.42;;
79076;SDS011;68477;42.698;23.342;2023-09-08T11:05:14;6.85;;;3.53;;
79076;SDS011;68477;42.698;23.342;2023-09-08T11:07:41;5.55;;;3.58;;
79076;SDS011;68477;42.698;23.342;2023-09-08T11:10:08;5.32;;;3.63;;
79076;SDS011;68477;42.698;23.342;2023-09-08T11:12:34;8.45;;;3.80;;
79076;SDS011;68477;42.698;23.342;2023-09-08T11:15:01;5.40;;;3.47;;
79076;SDS011;68477;42.698;23.342;2023-09-08T11:17:32;5.95;;;3.70;;
79076;SDS011;68477;42.698;23.342;2023-09-08T11:19:59;7.03;;;3.60;;
79076;SDS011;68477;42.698;23.342;2023-09-08T11:22:26;5.82;;;4.00;;
79076;SDS011;68477;42.698;23.342;2023-09-08T11:24:52;5.57;;;3.65;;
79076;SDS011;68477;42.698;23.342;2023-09-08T11:27:18;9.57;;;4.07;;
79076;SDS011;68477;42.698;23.342;2023-09-08T11:29:46;7.18;;;3.90;;
79076;SDS011;68477;42.698;23.342;2023-09-08T11:32:12;6.05;;;3.80;;
79076;SDS011;68477;42.698;23.342;2023-09-08T11:34:38;8.65;;;4.25;;
79076;SDS011;68477;42.698;23.342;2023-09-08T11:37:15;7.30;;;4.00;;
79076;SDS011;68477;42.698;23.342;2023-09-08T11:39:44;7.63;;;4.13;;
79076;SDS011;68477;42.698;23.342;2023-09-08T11:42:11;5.18;;;3.60;;
79076;SDS011;68477;42.698;23.342;2023-09-08T11:44:38;6.85;;;3.67;;
79076;SDS011;68477;42.698;23.342;2023-09-08T11:47:06;6.65;;;3.83;;
79076;SDS011;68477;42.698;23.342;2023-09-08T11:49:36;7.25;;;3.75;;
79076;SDS011;68477;42.698;23.342;2023-09-08T11:52:03;10.70;;;4.00;;
79076;SDS011;68477;42.698;23.342;2023-09-08T11:54:30;8.38;;;4.00;;
79076;SDS011;68477;42.698;23.342;2023-09-08T11:56:58;8.13;;;4.00;;
79076;SDS011;68477;42.698;23.342;2023-09-08T11:59:25;8.25;;;4.38;;
79076;SDS011;68477;42.698;23.342;2023-09-08T12:04:19;8.10;;;4.93;;
79076;SDS011;68477;42.698;23.342;2023-09-08T12:06:45;8.50;;;3.90;;
79076;SDS011;68477;42.698;23.342;2023-09-08T12:09:12;6.15;;;4.00;;
79076;SDS011;68477;42.698;23.342;2023-09-08T12:11:37;7.65;;;4.45;;
79076;SDS011;68477;42.698;23.342;2023-09-08T12:14:07;5.38;;;3.83;;
79076;SDS011;68477;42.698;23.342;2023-09-08T12:16:35;6.57;;;3.75;;
79076;SDS011;68477;42.698;23.342;2023-09-08T12:19:00;5.90;;;4.07;;
79076;SDS011;68477;42.698;23.342;2023-09-08T12:21:26;6.97;;;3.80;;
79076;SDS011;68477;42.698;23.342;2023-09-08T12:23:52;7.13;;;3.65;;
79076;SDS011;68477;42.698;23.342;2023-09-08T12:26:18;8.40;;;3.80;;
79076;SDS011;68477;42.698;23.342;2023-09-08T12:28:45;5.78;;;3.55;;
79076;SDS011;68477;42.698;23.342;2023-09-08T12:31:13;6.53;;;3.42;;
79076;SDS011;68477;42.698;23.342;2023-09-08T12:33:39;5.32;;;3.63;;
79076;SDS011;68477;42.698;23.342;2023-09-08T12:36:14;6.47;;;3.38;;
79076;SDS011;68477;42.698;23.342;2023-09-08T12:38:46;4.65;;;3.20;;
79076;SDS011;68477;42.698;23.342;2023-09-08T12:41:12;8.30;;;3.65;;
79076;SDS011;68477;42.698;23.342;2023-09-08T12:43:37;7.35;;;4.47;;
79076;SDS011;68477;42.698;23.342;2023-09-08T12:46:03;6.38;;;3.85;;
79076;SDS011;68477;42.698;23.342;2023-09-08T12:48:29;7.68;;;3.80;;
79076;SDS011;68477;42.698;23.342;2023-09-08T12:50:54;6.30;;;3.70;;
79076;SDS011;68477;42.698;23.342;2023-09-08T12:53:19;6.00;;;3.90;;
79076;SDS011;68477;42.698;23.342;2023-09-08T12:55:46;7.30;;;3.53;;
79076;SDS011;68477;42.698;23.342;2023-09-08T12:58:12;8.18;;;3.97;;
79076;SDS011;68477;42.698;23.342;2023-09-08T13:00:38;7.18;;;3.85;;
79076;SDS011;68477;42.698;23.342;2023-09-08T13:03:04;8.68;;;3.67;;
79076;SDS011;68477;42.698;23.342;2023-09-08T13:05:29;5.35;;;3.35;;
79076;SDS011;68477;42.698;23.342;2023-09-08T13:07:56;8.52;;;4.10;;
79076;SDS011;68477;42.698;23.342;2023-09-08T13:10:21;5.85;;;3.55;;
79076;SDS011;68477;42.698;23.342;2023-09-08T13:12:47;5.53;;;3.60;;
79076;SDS011;68477;42.698;23.342;2023-09-08T13:15:13;7.32;;;3.60;;
79076;SDS011;68477;42.698;23.342;2023-09-08T13:17:39;6.63;;;4.20;;
79076;SDS011;68477;42.698;23.342;2023-09-08T13:20:05;7.43;;;3.88;;
79076;SDS011;68477;42.698;23.342;2023-09-08T13:22:31;5.57;;;3.45;;
79076;SDS011;68477;42.698;23.342;2023-09-08T13:24:57;7.00;;;3.83;;
79076;SDS011;68477;42.698;23.342;2023-09-08T13:27:22;5.85;;;3.90;;
79076;SDS011;68477;42.698;23.342;2023-09-08T13:29:48;5.20;;;3.80;;
79076;SDS011;68477;42.698;23.342;2023-09-08T13:32:14;6.35;;;4.22;;
79076;SDS011;68477;42.698;23.342;2023-09-08T13:34:39;9.43;;;4.28;;
79076;SDS011;68477;42.698;23.342;2023-09-08T13:37:05;5.65;;;3.67;;
79076;SDS011;68477;42.698;23.342;2023-09-08T13:39:31;6.72;;;3.70;;
79076;SDS011;68477;42.698;23.342;2023-09-08T13:41:58;6.15;;;3.95;;
79076;SDS011;68477;42.698;23.342;2023-09-08T13:44:24;6.80;;;4.00;;
79076;SDS011;68477;42.698;23.342;2023-09-08T13:46:50;7.68;;;3.70;;
79076;SDS011;68477;42.698;23.342;2023-09-08T13:49:17;6.20;;;3.50;;
79076;SDS011;68477;42.698;23.342;2023-09-08T13:51:43;6.68;;;4.28;;
79076;SDS011;68477;42.698;23.342;2023-09-08T13:54:10;8.93;;;3.83;;
79076;SDS011;68477;42.698;23.342;2023-09-08T13:56:37;5.38;;;3.70;;
79076;SDS011;68477;42.698;23.342;2023-09-08T13:59:04;7.97;;;3.42;;
79076;SDS011;68477;42.698;23.342;2023-09-08T14:01:30;4.75;;;3.40;;
79076;SDS011;68477;42.698;23.342;2023-09-08T14:03:58;5.78;;;3.92;;
79076;SDS011;68477;42.698;23.342;2023-09-08T14:06:25;6.85;;;3.90;;
79076;SDS011;68477;42.698;23.342;2023-09-08T14:08:51;6.20;;;3.85;;
79076;SDS011;68477;42.698;23.342;2023-09-08T14:11:16;5.63;;;3.80;;
79076;SDS011;68477;42.698;23.342;2023-09-08T14:13:42;6.35;;;3.65;;
79076;SDS011;68477;42.698;23.342;2023-09-08T14:16:08;9.27;;;4.10;;
79076;SDS011;68477;42.698;23.342;2023-09-08T14:18:34;4.75;;;3.53;;
79076;SDS011;68477;42.698;23.342;2023-09-08T14:20:59;6.80;;;3.80;;
79076;SDS011;68477;42.698;23.342;2023-09-08T14:23:25;4.47;;;3.50;;
79076;SDS011;68477;42.698;23.342;2023-09-08T14:25:51;5.18;;;3.38;;
79076;SDS011;68477;42.698;23.342;2023-09-08T14:28:16;6.45;;;4.20;;
79076;SDS011;68477;42.698;23.342;2023-09-08T14:30:42;7.13;;;3.42;;
79076;SDS011;68477;42.698;23.342;2023-09-08T14:33:09;9.70;;;3.47;;
79076;SDS011;68477;42.698;23.342;2023-09-08T14:35:35;10.18;;;4.10;;
79076;SDS011;68477;42.698;23.342;2023-09-08T14:38:00;7.45;;;4.03;;
79076;SDS011;68477;42.698;23.342;2023-09-08T14:40:26;7.80;;;3.90;;
79076;SDS011;68477;42.698;23.342;2023-09-08T14:42:51;10.25;;;4.30;;